East Amana, Iowa
Current Conditions -  °F | °C
As of 6:52 AM on Saturday 22 Nov 2014 (Local Time) from KCID Reporting Station
Moderate Fog Moderate Fog  
Wind Chill: 30°   Ceiling: 200
Heat Index: 35°   Visibility: 0.25mi
Dew Point: 35°   Wind: 6mph
Humidity: 100%   Direction: 160°SSE
Pressure: 29.92"   Gusts: NA
Location:  41.8244°N, 91.8792°W
Report Text: KCID 221252Z 16005KT 1/4SM FG VV002 02/02 A2992 RMK AO2 SLP141 T00170017
Loading
Personal Weather Stations






























Interactive Weather Map New forecast layout! Learn more

10-Day Weather Forecast

Advertisements
Track Severe Weather on mobile